Rechercher aéroport 
image banner adimage banner adimage banner ad
image banner ad

KSDM - Brown Field Muni

Situé à San Diego, United States

ICAO - SDM, IATA -

Données fournies par Airmate  

Information générale

Coordonnées: N32°34'20" W116°58'49"
Élévation : 526 feet MSL.
Variation magnétique : 14° East
Voir autres Aéroports à California

Données opérationnelles

Special qualification required
Heure actuelle UTC:
Heure actuelle locale:
Météo
METAR: KSDM 292353Z COR 29008KT 10SM CLR 27/14 A2988 RMK AO2 SLP112 T02670144 10278 20256 58009
Voir NOTAMs / SUP AIP / TFR affectant cet aéroport [VIEW]
Fréquences de communication: [VIEW]

Pistes:

Identifiant RWYQFULongueur (ft)Largeur (ft)SurfaceLDA (ft)
08R96°318575ASPH
26L276°318575ASPH
08L96°7972150OTHER
26R276°7972150OTHER

Coordonnées de l'aéroport

Adresse: San Diego United States

Autres services d'aviation

Écoles de pilotage

First Flight Corporation

First Flight Corporation

Attitude Helicopters

Attitude Helicopters
info@helialtitude.com+1(619)661-1605

Vue satellite de KSDM